createdAt,value
2023-05-21T00:02:30.245Z,20.28
2023-05-21T00:04:57.977Z,20.27
2023-05-21T00:07:25.566Z,20.20
2023-05-21T00:09:53.122Z,20.17
2023-05-21T00:12:20.656Z,20.15
2023-05-21T00:14:48.199Z,20.16
2023-05-21T00:17:16.067Z,20.13
2023-05-21T00:19:43.577Z,20.09
2023-05-21T00:22:11.228Z,20.06
2023-05-21T00:24:38.951Z,20.03
2023-05-21T00:27:06.496Z,20.03
2023-05-21T00:29:34.953Z,20.02
2023-05-21T00:32:03.181Z,20.00
2023-05-21T00:34:30.851Z,20.01
2023-05-21T00:36:58.617Z,20.03
2023-05-21T00:39:26.529Z,19.98
2023-05-21T00:41:54.191Z,19.94
2023-05-21T00:44:22.178Z,19.93
2023-05-21T00:46:53.749Z,19.91
2023-05-21T00:49:24.639Z,19.89
2023-05-21T00:51:53.143Z,19.79
2023-05-21T00:54:21.465Z,19.77
2023-05-21T00:56:49.085Z,19.76
2023-05-21T00:59:16.831Z,19.76
2023-05-21T01:01:45.685Z,19.74
2023-05-21T01:04:13.404Z,19.74
2023-05-21T01:06:42.692Z,19.73
2023-05-21T01:09:10.558Z,19.69
2023-05-21T01:11:43.030Z,19.68
2023-05-21T01:14:11.169Z,19.68
2023-05-21T01:16:39.401Z,19.66
2023-05-21T01:19:07.692Z,19.65
2023-05-21T01:21:36.094Z,19.64
2023-05-21T01:24:05.741Z,19.59
2023-05-21T01:26:38.831Z,19.61
2023-05-21T01:29:06.844Z,19.61
2023-05-21T01:31:39.240Z,19.63
2023-05-21T01:34:06.842Z,19.58
2023-05-21T01:36:38.210Z,19.59
2023-05-21T01:39:09.653Z,19.58
2023-05-21T01:41:38.645Z,19.56
2023-05-21T01:44:06.205Z,19.52
2023-05-21T01:46:33.915Z,19.54
2023-05-21T01:49:01.388Z,19.56
2023-05-21T01:51:29.084Z,19.57
2023-05-21T01:53:56.530Z,19.56
2023-05-21T01:56:25.941Z,19.53
2023-05-21T01:58:56.839Z,19.48
2023-05-21T02:01:24.941Z,19.47
2023-05-21T02:03:52.823Z,19.45
2023-05-21T02:06:20.304Z,19.44
2023-05-21T02:08:48.450Z,19.46
2023-05-21T02:11:16.352Z,19.44
2023-05-21T02:13:46.120Z,19.39
2023-05-21T02:16:15.865Z,19.38
2023-05-21T02:18:44.081Z,19.37
2023-05-21T02:21:11.608Z,19.35
2023-05-21T02:23:39.090Z,19.36
2023-05-21T02:26:06.886Z,19.32
2023-05-21T02:28:36.358Z,19.31
2023-05-21T02:31:04.207Z,19.26
2023-05-21T02:33:32.498Z,19.25
2023-05-21T02:36:00.226Z,19.23
2023-05-21T02:38:28.059Z,19.17
2023-05-21T02:40:55.927Z,19.12
2023-05-21T02:43:24.297Z,19.08
2023-05-21T02:45:52.149Z,19.08
2023-05-21T02:48:20.376Z,19.08
2023-05-21T02:50:47.779Z,19.09
2023-05-21T02:53:15.332Z,19.11
2023-05-21T02:55:43.116Z,19.13
2023-05-21T02:58:13.573Z,19.13
2023-05-21T03:00:41.892Z,19.12
2023-05-21T03:03:09.419Z,19.13
2023-05-21T03:05:37.167Z,19.17
2023-05-21T03:08:05.051Z,19.19
2023-05-21T03:10:33.197Z,19.15
2023-05-21T03:13:01.356Z,19.17
2023-05-21T03:15:33.352Z,19.17
2023-05-21T03:18:00.877Z,19.12
2023-05-21T03:20:28.999Z,19.14
2023-05-21T03:22:56.657Z,19.15
2023-05-21T03:25:25.395Z,19.14
2023-05-21T03:27:54.689Z,19.15
2023-05-21T03:30:46.315Z,19.10
2023-05-21T03:33:32.818Z,19.03
2023-05-21T03:36:02.485Z,18.99
2023-05-21T03:38:34.919Z,18.97
2023-05-21T03:41:04.064Z,18.92
2023-05-21T03:43:31.651Z,18.92
2023-05-21T03:45:59.339Z,18.91
2023-05-21T03:48:55.791Z,18.86
2023-05-21T03:51:25.020Z,18.91
2023-05-21T03:53:52.862Z,18.87
2023-05-21T03:56:21.702Z,18.89
2023-05-21T03:58:49.304Z,18.85
2023-05-21T04:01:17.847Z,18.89
2023-05-21T04:03:45.966Z,18.93
2023-05-21T04:06:16.070Z,18.89
2023-05-21T04:08:44.594Z,18.77
2023-05-21T04:11:12.186Z,18.80
2023-05-21T04:13:39.776Z,18.82
2023-05-21T04:16:09.485Z,18.80
2023-05-21T04:18:37.190Z,18.81
2023-05-21T04:21:05.235Z,18.81
2023-05-21T04:23:33.465Z,18.81
2023-05-21T04:26:03.141Z,18.79
2023-05-21T04:28:31.030Z,18.77
2023-05-21T04:30:58.783Z,18.73
2023-05-21T04:33:26.360Z,18.70
2023-05-21T04:35:53.930Z,18.71
2023-05-21T04:38:21.769Z,18.67
2023-05-21T04:40:52.431Z,18.71
2023-05-21T04:43:26.602Z,18.71
2023-05-21T04:45:56.730Z,18.70
2023-05-21T04:48:27.165Z,18.68
2023-05-21T04:50:56.124Z,18.59
2023-05-21T04:53:26.308Z,18.56
2023-05-21T04:55:54.067Z,18.54
2023-05-21T04:58:21.794Z,18.55
2023-05-21T05:00:51.955Z,18.57
2023-05-21T05:03:19.705Z,18.58
2023-05-21T05:05:47.530Z,18.53
2023-05-21T05:08:16.139Z,18.60
2023-05-21T05:10:44.024Z,18.68
2023-05-21T05:13:12.686Z,18.68
2023-05-21T05:15:40.461Z,18.67
2023-05-21T05:18:09.295Z,18.64
2023-05-21T05:20:36.745Z,18.63
2023-05-21T05:23:04.416Z,18.66
2023-05-21T05:25:32.528Z,18.74
2023-05-21T05:28:00.354Z,18.79
2023-05-21T05:30:28.088Z,18.86
2023-05-21T05:33:01.101Z,18.92
2023-05-21T05:35:28.823Z,18.97
2023-05-21T05:37:57.167Z,19.00
2023-05-21T05:40:24.936Z,19.02
2023-05-21T05:42:52.898Z,19.04
2023-05-21T05:45:20.649Z,19.02
2023-05-21T05:47:48.569Z,19.01
2023-05-21T05:50:16.407Z,19.04
2023-05-21T05:52:44.060Z,19.05
2023-05-21T05:55:12.643Z,19.08
2023-05-21T05:57:40.575Z,19.08
2023-05-21T06:00:13.775Z,19.11
2023-05-21T06:02:44.867Z,19.17
2023-05-21T06:05:12.774Z,19.16
2023-05-21T06:07:41.313Z,19.20
2023-05-21T06:10:09.204Z,19.19
2023-05-21T06:12:36.811Z,19.17
2023-05-21T06:15:05.911Z,19.17
2023-05-21T06:17:34.355Z,19.18
2023-05-21T06:20:02.816Z,19.13
2023-05-21T06:22:30.613Z,19.07
2023-05-21T06:24:58.999Z,19.08
2023-05-21T06:27:26.489Z,19.08
2023-05-21T06:29:54.392Z,19.10
2023-05-21T06:32:23.159Z,19.10
2023-05-21T06:34:51.045Z,19.15
2023-05-21T06:37:25.928Z,19.17
2023-05-21T06:39:54.337Z,19.16
2023-05-21T06:42:22.429Z,19.14
2023-05-21T06:45:02.475Z,19.16
2023-05-21T06:47:32.733Z,19.20
2023-05-21T06:50:00.293Z,19.17
2023-05-21T06:52:27.865Z,19.19
2023-05-21T06:54:55.549Z,19.20
2023-05-21T06:57:25.145Z,19.15
2023-05-21T06:59:52.886Z,19.19
2023-05-21T07:02:20.607Z,19.12
2023-05-21T07:04:48.590Z,19.11
2023-05-21T07:07:16.161Z,19.08
2023-05-21T07:09:44.380Z,19.12
2023-05-21T07:12:12.161Z,19.09
2023-05-21T07:14:40.243Z,19.09
2023-05-21T07:17:07.878Z,19.09
2023-05-21T07:19:37.066Z,19.00
2023-05-21T07:22:06.045Z,19.01
2023-05-21T07:24:33.821Z,18.98
2023-05-21T07:27:04.624Z,18.94
2023-05-21T07:29:37.215Z,18.95
2023-05-21T07:32:05.034Z,18.98
2023-05-21T07:34:33.211Z,19.02
2023-05-21T07:37:00.960Z,19.00
2023-05-21T07:39:28.848Z,18.98
2023-05-21T07:41:56.430Z,19.00
2023-05-21T07:44:24.575Z,19.06
2023-05-21T07:46:52.267Z,19.12
2023-05-21T07:49:20.168Z,19.18
2023-05-21T07:51:48.962Z,19.23
2023-05-21T07:54:16.968Z,19.22
2023-05-21T07:56:45.969Z,19.27
2023-05-21T07:59:26.090Z,19.28
2023-05-21T08:01:53.755Z,19.26
2023-05-21T08:04:21.450Z,19.28
2023-05-21T08:06:49.142Z,19.39
2023-05-21T08:09:16.796Z,19.49
2023-05-21T08:11:44.962Z,19.57
2023-05-21T08:14:12.711Z,19.64
2023-05-21T08:16:40.560Z,19.69
2023-05-21T08:19:08.217Z,19.76
2023-05-21T08:21:36.874Z,19.88
2023-05-21T08:24:04.513Z,19.95
2023-05-21T08:26:33.917Z,20.04
2023-05-21T08:29:03.071Z,20.00
2023-05-21T08:31:30.775Z,20.08
2023-05-21T08:33:58.904Z,20.14
2023-05-21T08:36:38.324Z,20.21
2023-05-21T08:39:13.366Z,20.27
2023-05-21T08:41:49.618Z,20.34
2023-05-21T08:44:19.311Z,20.40
2023-05-21T08:46:47.207Z,20.46
2023-05-21T08:49:16.146Z,20.50
2023-05-21T08:51:44.553Z,20.57
2023-05-21T08:54:13.514Z,20.65
2023-05-21T08:56:45.761Z,20.71
2023-05-21T08:59:14.172Z,20.76
2023-05-21T09:01:42.444Z,20.79
2023-05-21T09:04:21.647Z,20.86
2023-05-21T09:06:55.154Z,20.88
2023-05-21T09:09:52.920Z,20.93
2023-05-21T09:12:20.897Z,20.99
2023-05-21T09:14:49.378Z,21.04
2023-05-21T09:17:20.422Z,21.15
2023-05-21T09:20:16.756Z,21.24
2023-05-21T09:22:51.550Z,21.40
2023-05-21T09:25:29.460Z,21.59
2023-05-21T09:28:01.228Z,21.66
2023-05-21T09:30:31.136Z,21.76
2023-05-21T09:33:00.570Z,21.73
2023-05-21T09:35:28.428Z,21.64
2023-05-21T09:37:57.606Z,21.63
2023-05-21T09:40:25.353Z,21.61
2023-05-21T09:42:53.958Z,21.63
2023-05-21T09:45:22.697Z,21.86
2023-05-21T09:47:52.743Z,22.08
2023-05-21T09:50:25.826Z,22.27
2023-05-21T09:52:53.625Z,22.35
2023-05-21T09:55:28.586Z,22.47
2023-05-21T09:57:56.336Z,22.62
2023-05-21T10:00:30.537Z,22.69
2023-05-21T10:03:01.032Z,22.68
2023-05-21T10:05:29.495Z,22.62
2023-05-21T10:07:59.877Z,22.61
2023-05-21T10:10:27.979Z,22.66
2023-05-21T10:13:00.873Z,22.73
2023-05-21T10:15:32.132Z,22.87
2023-05-21T10:17:59.868Z,23.03
2023-05-21T10:20:27.426Z,23.13
2023-05-21T10:22:54.941Z,23.25
2023-05-21T10:25:22.438Z,23.36
2023-05-21T10:27:50.064Z,23.33
2023-05-21T10:30:17.734Z,23.48
2023-05-21T10:32:45.562Z,23.59
2023-05-21T10:35:13.820Z,23.62
2023-05-21T10:37:41.994Z,23.77
2023-05-21T10:40:10.151Z,23.81
2023-05-21T10:42:45.604Z,23.85
2023-05-21T10:45:36.868Z,23.91
2023-05-21T10:48:22.693Z,23.95
2023-05-21T10:51:24.115Z,23.97
2023-05-21T10:54:25.755Z,23.94
2023-05-21T10:57:10.255Z,23.90
2023-05-21T10:59:44.062Z,24.08
2023-05-21T11:02:12.879Z,24.16
2023-05-21T11:04:42.608Z,24.17
2023-05-21T11:07:11.211Z,24.15
2023-05-21T11:09:39.002Z,24.17
2023-05-21T11:12:08.199Z,24.21
2023-05-21T11:14:40.632Z,24.27
2023-05-21T11:17:17.537Z,24.31
2023-05-21T11:19:50.882Z,24.34
2023-05-21T11:22:22.335Z,24.44
2023-05-21T11:24:51.778Z,24.48
2023-05-21T11:27:39.256Z,24.44
2023-05-21T11:30:09.375Z,24.56
2023-05-21T11:32:39.154Z,24.69
2023-05-21T11:35:07.205Z,24.75
2023-05-21T11:37:35.390Z,24.74
2023-05-21T11:40:19.697Z,24.81
2023-05-21T11:42:50.003Z,24.79
2023-05-21T11:45:21.746Z,24.93
2023-05-21T11:47:49.806Z,24.97
2023-05-21T11:50:17.748Z,24.97
2023-05-21T11:52:46.198Z,24.96
2023-05-21T11:55:15.812Z,24.98
2023-05-21T11:57:44.923Z,24.97
2023-05-21T12:00:16.836Z,24.86
2023-05-21T12:02:46.657Z,24.74
2023-05-21T12:05:14.435Z,24.64
2023-05-21T12:07:43.222Z,24.59
2023-05-21T12:10:11.468Z,24.62
2023-05-21T12:12:53.333Z,24.65
2023-05-21T12:15:24.383Z,24.70
2023-05-21T12:17:53.295Z,24.74
2023-05-21T12:20:21.108Z,24.86
2023-05-21T12:22:49.692Z,25.01
2023-05-21T12:25:20.670Z,25.19
2023-05-21T12:27:49.829Z,25.37
2023-05-21T12:30:17.373Z,25.54
2023-05-21T12:32:45.687Z,25.64
2023-05-21T12:35:24.626Z,25.69
2023-05-21T12:37:53.014Z,25.73
2023-05-21T12:40:21.027Z,25.76
2023-05-21T12:42:48.738Z,25.82
2023-05-21T12:45:18.793Z,25.82
2023-05-21T12:47:49.023Z,25.76
2023-05-21T12:50:16.779Z,25.69
2023-05-21T12:52:44.361Z,25.60
2023-05-21T12:55:15.677Z,25.49
2023-05-21T12:57:44.020Z,25.34
2023-05-21T13:00:12.113Z,25.16
2023-05-21T13:02:40.911Z,24.93
2023-05-21T13:05:16.423Z,24.69
2023-05-21T13:07:46.888Z,24.43
2023-05-21T13:10:16.743Z,24.15
2023-05-21T13:12:45.284Z,23.89
2023-05-21T13:15:13.000Z,23.62
2023-05-21T13:17:41.085Z,23.34
2023-05-21T13:20:12.820Z,23.11
2023-05-21T13:22:58.792Z,22.89
2023-05-21T13:25:29.820Z,22.69
2023-05-21T13:27:59.152Z,22.50
2023-05-21T13:30:26.935Z,22.28
2023-05-21T13:32:54.990Z,22.08
2023-05-21T13:35:22.714Z,21.87
2023-05-21T13:37:50.311Z,21.70
2023-05-21T13:40:17.880Z,21.53
2023-05-21T13:42:46.828Z,21.43
2023-05-21T13:45:16.373Z,21.30
2023-05-21T13:47:45.124Z,21.14
2023-05-21T13:50:12.892Z,21.00
2023-05-21T13:52:40.941Z,20.89
2023-05-21T13:55:09.149Z,20.80
2023-05-21T13:57:37.211Z,20.74
2023-05-21T14:00:06.031Z,20.66
2023-05-21T14:02:35.450Z,20.49
2023-05-21T14:05:03.128Z,20.37
2023-05-21T14:07:31.115Z,20.28
2023-05-21T14:09:58.613Z,20.17
2023-05-21T14:12:26.956Z,20.08
2023-05-21T14:14:54.864Z,20.00
2023-05-21T14:17:22.785Z,19.97
2023-05-21T14:19:50.707Z,19.83
2023-05-21T14:22:18.909Z,19.75
2023-05-21T14:24:47.072Z,19.65
2023-05-21T14:27:15.978Z,19.62
2023-05-21T14:29:43.565Z,19.63
2023-05-21T14:32:11.146Z,19.69
2023-05-21T14:34:40.421Z,19.71
2023-05-21T14:37:08.072Z,19.73
2023-05-21T14:39:36.025Z,19.74
2023-05-21T14:42:04.946Z,19.74
2023-05-21T14:44:32.810Z,19.72
2023-05-21T14:47:00.599Z,19.71
2023-05-21T14:49:28.207Z,19.73
2023-05-21T14:51:56.154Z,19.73
2023-05-21T14:54:23.738Z,19.73
2023-05-21T14:56:51.291Z,19.70
2023-05-21T14:59:18.869Z,19.67
2023-05-21T15:01:46.558Z,19.65
2023-05-21T15:04:14.323Z,19.62
2023-05-21T15:06:42.175Z,19.60
2023-05-21T15:09:10.111Z,19.60
2023-05-21T15:11:39.850Z,19.57
2023-05-21T15:14:07.539Z,19.56
2023-05-21T15:16:36.056Z,19.53
2023-05-21T15:19:04.141Z,19.49
2023-05-21T15:21:32.715Z,19.37
2023-05-21T15:24:00.462Z,19.33
2023-05-21T15:26:28.278Z,19.35
2023-05-21T15:28:55.896Z,19.39
2023-05-21T15:31:23.483Z,19.43
2023-05-21T15:33:51.059Z,19.45
2023-05-21T15:36:18.550Z,19.48
2023-05-21T15:38:46.300Z,19.49
2023-05-21T15:41:13.709Z,19.44
2023-05-21T15:43:42.299Z,19.40
2023-05-21T15:46:11.277Z,19.38
2023-05-21T15:48:38.984Z,19.36
2023-05-21T15:51:06.403Z,19.36
2023-05-21T15:53:34.348Z,19.34
2023-05-21T15:56:03.318Z,19.32
2023-05-21T15:58:31.441Z,19.32
2023-05-21T16:00:58.952Z,19.29
2023-05-21T16:03:26.767Z,19.28
2023-05-21T16:05:54.350Z,19.25
2023-05-21T16:08:21.780Z,19.19
2023-05-21T16:10:49.136Z,19.17
2023-05-21T16:13:16.863Z,19.20
2023-05-21T16:15:44.785Z,19.24
2023-05-21T16:18:12.573Z,19.26
2023-05-21T16:20:40.199Z,19.27
2023-05-21T16:23:07.709Z,19.26
2023-05-21T16:25:36.542Z,19.26
2023-05-21T16:28:04.535Z,19.27
2023-05-21T16:30:32.150Z,19.24
2023-05-21T16:32:59.689Z,19.20
2023-05-21T16:35:27.478Z,19.19
2023-05-21T16:37:55.096Z,19.21
2023-05-21T16:40:23.112Z,19.23
2023-05-21T16:42:51.411Z,19.21
2023-05-21T16:45:23.367Z,19.19
2023-05-21T16:47:51.389Z,19.17
2023-05-21T16:50:19.939Z,19.18
2023-05-21T16:52:47.440Z,19.18
2023-05-21T16:55:15.258Z,19.20
2023-05-21T16:57:42.761Z,19.17
2023-05-21T17:00:10.783Z,19.16
2023-05-21T17:02:39.636Z,19.14
2023-05-21T17:05:08.047Z,19.13
2023-05-21T17:07:35.806Z,19.13
2023-05-21T17:10:04.941Z,19.12
2023-05-21T17:12:32.900Z,19.13
2023-05-21T17:15:02.204Z,19.12
2023-05-21T17:17:30.291Z,19.11
2023-05-21T17:19:58.199Z,19.10
2023-05-21T17:22:25.968Z,19.11
2023-05-21T17:24:54.019Z,19.09
2023-05-21T17:27:21.425Z,19.08
2023-05-21T17:29:50.275Z,19.03
2023-05-21T17:32:17.744Z,18.98
2023-05-21T17:34:45.172Z,18.95
2023-05-21T17:37:14.146Z,18.91
2023-05-21T17:39:43.852Z,18.86
2023-05-21T17:42:11.555Z,18.86
2023-05-21T17:44:38.961Z,18.87
2023-05-21T17:47:07.020Z,18.84
2023-05-21T17:49:34.966Z,18.79
2023-05-21T17:52:04.569Z,18.76
2023-05-21T17:54:32.058Z,18.72
2023-05-21T17:56:59.672Z,18.70
2023-05-21T17:59:27.190Z,18.66
2023-05-21T18:01:54.633Z,18.65
2023-05-21T18:04:22.661Z,18.64
2023-05-21T18:06:51.611Z,18.67
2023-05-21T18:09:19.087Z,18.68
2023-05-21T18:11:46.829Z,18.64
2023-05-21T18:14:14.707Z,18.62
2023-05-21T18:16:42.647Z,18.60
2023-05-21T18:19:11.354Z,18.59
2023-05-21T18:21:40.324Z,18.59
2023-05-21T18:24:08.219Z,18.65
2023-05-21T18:26:35.721Z,18.68
2023-05-21T18:29:03.206Z,18.68
2023-05-21T18:31:30.848Z,18.65
2023-05-21T18:33:58.298Z,18.60
2023-05-21T18:36:26.713Z,18.62
2023-05-21T18:38:54.212Z,18.63
2023-05-21T18:41:22.480Z,18.64
2023-05-21T18:43:49.922Z,18.61
2023-05-21T18:46:17.550Z,18.56
2023-05-21T18:48:46.372Z,18.55
2023-05-21T18:51:13.784Z,18.53
2023-05-21T18:53:41.459Z,18.53
2023-05-21T18:56:10.335Z,18.50
2023-05-21T18:58:38.665Z,18.46
2023-05-21T19:01:06.530Z,18.44
2023-05-21T19:03:34.013Z,18.41
2023-05-21T19:06:01.517Z,18.43
2023-05-21T19:08:28.941Z,18.37
2023-05-21T19:10:57.181Z,18.35
2023-05-21T19:13:24.841Z,18.36
2023-05-21T19:15:52.874Z,18.36
2023-05-21T19:18:20.425Z,18.29
2023-05-21T19:20:47.887Z,18.29
2023-05-21T19:23:15.420Z,18.29
2023-05-21T19:25:43.024Z,18.26
2023-05-21T19:28:10.545Z,18.24
2023-05-21T19:30:38.479Z,18.21
2023-05-21T19:33:06.407Z,18.19
2023-05-21T19:35:36.149Z,18.17
2023-05-21T19:38:05.420Z,18.18
2023-05-21T19:40:33.537Z,18.21
2023-05-21T19:43:01.070Z,18.21
2023-05-21T19:45:28.815Z,18.26
2023-05-21T19:47:56.859Z,18.29
2023-05-21T19:50:24.697Z,18.32
2023-05-21T19:52:52.225Z,18.35
2023-05-21T19:55:22.815Z,18.37
2023-05-21T19:57:50.446Z,18.38
2023-05-21T20:00:18.382Z,18.41
2023-05-21T20:02:46.785Z,18.42
2023-05-21T20:05:14.725Z,18.41
2023-05-21T20:07:42.423Z,18.41
2023-05-21T20:10:10.061Z,18.42
2023-05-21T20:12:38.983Z,18.42
2023-05-21T20:15:07.137Z,18.41
2023-05-21T20:17:36.006Z,18.33
2023-05-21T20:20:07.453Z,18.26
2023-05-21T20:22:35.235Z,18.25
2023-05-21T20:25:04.195Z,18.25
2023-05-21T20:27:32.090Z,18.23
2023-05-21T20:29:59.581Z,18.19
2023-05-21T20:32:27.908Z,18.15
2023-05-21T20:35:03.408Z,18.12
2023-05-21T20:37:34.435Z,18.11
2023-05-21T20:40:02.005Z,18.07
2023-05-21T20:42:34.292Z,18.04
2023-05-21T20:45:03.192Z,18.02
2023-05-21T20:47:32.049Z,17.99
2023-05-21T20:49:59.757Z,17.96
2023-05-21T20:52:27.535Z,17.90
2023-05-21T20:54:55.336Z,17.88
2023-05-21T20:57:22.863Z,17.84
2023-05-21T20:59:53.669Z,17.84
2023-05-21T21:02:21.731Z,17.82
2023-05-21T21:04:50.683Z,17.84
2023-05-21T21:07:18.457Z,17.84
2023-05-21T21:09:47.045Z,17.86
2023-05-21T21:12:26.087Z,17.86
2023-05-21T21:14:54.809Z,17.87
2023-05-21T21:17:22.419Z,17.87
2023-05-21T21:19:50.032Z,17.84
2023-05-21T21:22:18.618Z,17.83
2023-05-21T21:24:46.156Z,17.84
2023-05-21T21:27:14.346Z,17.81
2023-05-21T21:29:42.022Z,17.82
2023-05-21T21:32:09.466Z,17.82
2023-05-21T21:34:38.297Z,17.76
2023-05-21T21:37:05.981Z,17.77
2023-05-21T21:39:33.387Z,17.79
2023-05-21T21:42:01.122Z,17.78
2023-05-21T21:44:28.810Z,17.76
2023-05-21T21:46:56.169Z,17.74
2023-05-21T21:49:23.571Z,17.75
2023-05-21T21:51:51.365Z,17.75
2023-05-21T21:54:19.085Z,17.75
2023-05-21T21:56:46.427Z,17.72
2023-05-21T21:59:13.840Z,17.66
2023-05-21T22:01:41.961Z,17.65
2023-05-21T22:04:09.557Z,17.65
2023-05-21T22:06:39.137Z,17.65
2023-05-21T22:09:06.944Z,17.61
2023-05-21T22:11:34.603Z,17.63
2023-05-21T22:14:02.573Z,17.62
2023-05-21T22:16:30.366Z,17.62
2023-05-21T22:18:58.904Z,17.62
2023-05-21T22:21:32.791Z,17.61
2023-05-21T22:24:00.256Z,17.61
2023-05-21T22:26:28.027Z,17.64
2023-05-21T22:28:55.801Z,17.64
2023-05-21T22:31:23.315Z,17.63
2023-05-21T22:33:50.830Z,17.65
2023-05-21T22:36:18.398Z,17.66
2023-05-21T22:38:45.892Z,17.62
2023-05-21T22:41:13.649Z,17.61
2023-05-21T22:43:41.476Z,17.60
2023-05-21T22:46:08.928Z,17.59
2023-05-21T22:48:37.403Z,17.52
2023-05-21T22:51:05.568Z,17.47
2023-05-21T22:53:33.502Z,17.43
2023-05-21T22:56:01.163Z,17.40
2023-05-21T22:58:28.686Z,17.35
2023-05-21T23:00:56.232Z,17.33
2023-05-21T23:03:23.988Z,17.34
2023-05-21T23:05:51.508Z,17.33
2023-05-21T23:08:19.156Z,17.29
2023-05-21T23:10:46.876Z,17.28
2023-05-21T23:13:14.401Z,17.26
2023-05-21T23:15:44.021Z,17.25
2023-05-21T23:18:11.790Z,17.22
2023-05-21T23:20:41.265Z,17.18
2023-05-21T23:23:09.893Z,17.16
2023-05-21T23:25:37.513Z,17.12
2023-05-21T23:28:05.083Z,17.12
2023-05-21T23:30:33.075Z,17.11
2023-05-21T23:33:00.714Z,17.11
2023-05-21T23:35:28.183Z,17.06
2023-05-21T23:37:55.994Z,17.05
2023-05-21T23:40:23.442Z,17.06
2023-05-21T23:42:51.061Z,17.06
2023-05-21T23:45:18.580Z,17.08
2023-05-21T23:47:46.580Z,17.05
2023-05-21T23:50:14.082Z,17.04
2023-05-21T23:52:41.640Z,17.02
2023-05-21T23:55:11.553Z,16.96
2023-05-21T23:57:39.190Z,16.94
